sensor_id;sensor_type;location;lat;lon;timestamp;P1;durP1;ratioP1;P2;durP2;ratioP2
53503;SDS011;39387;50.998;22.340;2022-10-16T00:00:03;15.45;;;9.40;;
53503;SDS011;39387;50.998;22.340;2022-10-16T00:02:51;17.52;;;9.48;;
53503;SDS011;39387;50.998;22.340;2022-10-16T00:05:19;16.23;;;9.77;;
53503;SDS011;39387;50.998;22.340;2022-10-16T00:07:46;13.73;;;8.85;;
53503;SDS011;39387;50.998;22.340;2022-10-16T00:10:14;13.65;;;8.77;;
53503;SDS011;39387;50.998;22.340;2022-10-16T00:12:41;15.05;;;9.15;;
53503;SDS011;39387;50.998;22.340;2022-10-16T00:15:09;17.83;;;9.57;;
53503;SDS011;39387;50.998;22.340;2022-10-16T00:17:36;13.98;;;8.75;;
53503;SDS011;39387;50.998;22.340;2022-10-16T00:20:04;13.13;;;8.70;;
53503;SDS011;39387;50.998;22.340;2022-10-16T00:22:33;16.10;;;9.32;;
53503;SDS011;39387;50.998;22.340;2022-10-16T00:25:01;16.92;;;9.40;;
53503;SDS011;39387;50.998;22.340;2022-10-16T00:27:28;16.45;;;9.50;;
53503;SDS011;39387;50.998;22.340;2022-10-16T00:29:55;14.55;;;9.18;;
53503;SDS011;39387;50.998;22.340;2022-10-16T00:32:23;14.85;;;8.77;;
53503;SDS011;39387;50.998;22.340;2022-10-16T00:34:50;15.25;;;8.52;;
53503;SDS011;39387;50.998;22.340;2022-10-16T00:37:20;15.67;;;8.63;;
53503;SDS011;39387;50.998;22.340;2022-10-16T00:39:48;15.27;;;8.73;;
53503;SDS011;39387;50.998;22.340;2022-10-16T00:42:16;15.82;;;9.00;;
53503;SDS011;39387;50.998;22.340;2022-10-16T00:44:46;16.17;;;8.95;;
53503;SDS011;39387;50.998;22.340;2022-10-16T00:49:45;14.55;;;8.80;;
53503;SDS011;39387;50.998;22.340;2022-10-16T00:52:13;18.17;;;9.77;;
53503;SDS011;39387;50.998;22.340;2022-10-16T00:54:41;15.23;;;8.60;;
53503;SDS011;39387;50.998;22.340;2022-10-16T00:57:10;17.50;;;9.80;;
53503;SDS011;39387;50.998;22.340;2022-10-16T00:59:38;15.63;;;8.52;;
53503;SDS011;39387;50.998;22.340;2022-10-16T01:02:08;15.63;;;9.48;;
53503;SDS011;39387;50.998;22.340;2022-10-16T01:04:38;14.70;;;9.07;;
53503;SDS011;39387;50.998;22.340;2022-10-16T01:07:10;16.27;;;9.95;;
53503;SDS011;39387;50.998;22.340;2022-10-16T01:09:44;14.52;;;8.30;;
53503;SDS011;39387;50.998;22.340;2022-10-16T01:12:20;16.02;;;9.15;;
53503;SDS011;39387;50.998;22.340;2022-10-16T01:14:52;15.13;;;9.13;;
53503;SDS011;39387;50.998;22.340;2022-10-16T01:17:24;14.85;;;8.75;;
53503;SDS011;39387;50.998;22.340;2022-10-16T01:19:59;17.20;;;10.18;;
53503;SDS011;39387;50.998;22.340;2022-10-16T01:22:33;17.02;;;10.05;;
53503;SDS011;39387;50.998;22.340;2022-10-16T01:25:08;17.80;;;10.32;;
53503;SDS011;39387;50.998;22.340;2022-10-16T01:27:38;16.20;;;9.13;;
53503;SDS011;39387;50.998;22.340;2022-10-16T01:30:07;17.40;;;9.50;;
53503;SDS011;39387;50.998;22.340;2022-10-16T01:32:40;17.88;;;10.35;;
53503;SDS011;39387;50.998;22.340;2022-10-16T01:35:09;21.23;;;10.75;;
53503;SDS011;39387;50.998;22.340;2022-10-16T01:37:40;21.80;;;12.20;;
53503;SDS011;39387;50.998;22.340;2022-10-16T01:40:09;19.35;;;10.35;;
53503;SDS011;39387;50.998;22.340;2022-10-16T01:42:40;17.30;;;10.10;;
53503;SDS011;39387;50.998;22.340;2022-10-16T01:45:09;19.33;;;11.48;;
53503;SDS011;39387;50.998;22.340;2022-10-16T01:47:38;19.00;;;10.13;;
53503;SDS011;39387;50.998;22.340;2022-10-16T01:50:06;17.35;;;9.82;;
53503;SDS011;39387;50.998;22.340;2022-10-16T01:52:35;17.77;;;10.02;;
53503;SDS011;39387;50.998;22.340;2022-10-16T01:55:06;16.23;;;9.65;;
53503;SDS011;39387;50.998;22.340;2022-10-16T01:57:34;18.05;;;9.75;;
53503;SDS011;39387;50.998;22.340;2022-10-16T02:00:07;16.35;;;9.40;;
53503;SDS011;39387;50.998;22.340;2022-10-16T02:02:35;18.77;;;10.32;;
53503;SDS011;39387;50.998;22.340;2022-10-16T02:05:05;17.70;;;10.00;;
53503;SDS011;39387;50.998;22.340;2022-10-16T02:07:38;16.30;;;8.98;;
53503;SDS011;39387;50.998;22.340;2022-10-16T02:10:07;21.70;;;10.38;;
53503;SDS011;39387;50.998;22.340;2022-10-16T02:12:35;18.15;;;9.77;;
53503;SDS011;39387;50.998;22.340;2022-10-16T02:15:06;17.02;;;9.27;;
53503;SDS011;39387;50.998;22.340;2022-10-16T02:17:34;16.60;;;9.25;;
53503;SDS011;39387;50.998;22.340;2022-10-16T02:20:02;19.25;;;9.65;;
53503;SDS011;39387;50.998;22.340;2022-10-16T02:22:32;19.27;;;10.45;;
53503;SDS011;39387;50.998;22.340;2022-10-16T02:25:03;16.25;;;9.38;;
53503;SDS011;39387;50.998;22.340;2022-10-16T02:27:34;17.10;;;10.15;;
53503;SDS011;39387;50.998;22.340;2022-10-16T02:30:05;19.02;;;10.88;;
53503;SDS011;39387;50.998;22.340;2022-10-16T02:32:36;17.90;;;9.23;;
53503;SDS011;39387;50.998;22.340;2022-10-16T02:35:06;20.00;;;10.20;;
53503;SDS011;39387;50.998;22.340;2022-10-16T02:37:34;18.98;;;9.35;;
53503;SDS011;39387;50.998;22.340;2022-10-16T02:40:02;19.90;;;10.73;;
53503;SDS011;39387;50.998;22.340;2022-10-16T02:42:33;19.48;;;10.25;;
53503;SDS011;39387;50.998;22.340;2022-10-16T02:45:01;17.45;;;9.63;;
53503;SDS011;39387;50.998;22.340;2022-10-16T02:47:29;19.05;;;9.88;;
53503;SDS011;39387;50.998;22.340;2022-10-16T02:49:57;18.10;;;10.15;;
53503;SDS011;39387;50.998;22.340;2022-10-16T02:52:24;16.08;;;9.40;;
53503;SDS011;39387;50.998;22.340;2022-10-16T02:54:52;15.70;;;8.82;;
53503;SDS011;39387;50.998;22.340;2022-10-16T02:57:19;20.38;;;10.00;;
53503;SDS011;39387;50.998;22.340;2022-10-16T02:59:46;16.40;;;8.93;;
53503;SDS011;39387;50.998;22.340;2022-10-16T03:02:13;16.27;;;9.30;;
53503;SDS011;39387;50.998;22.340;2022-10-16T03:04:42;16.58;;;9.13;;
53503;SDS011;39387;50.998;22.340;2022-10-16T03:07:09;17.80;;;10.77;;
53503;SDS011;39387;50.998;22.340;2022-10-16T03:09:37;20.73;;;10.63;;
53503;SDS011;39387;50.998;22.340;2022-10-16T03:12:04;21.55;;;9.90;;
53503;SDS011;39387;50.998;22.340;2022-10-16T03:14:32;18.63;;;9.75;;
53503;SDS011;39387;50.998;22.340;2022-10-16T03:17:00;19.42;;;10.30;;
53503;SDS011;39387;50.998;22.340;2022-10-16T03:19:27;18.23;;;10.02;;
53503;SDS011;39387;50.998;22.340;2022-10-16T03:21:56;16.63;;;9.93;;
53503;SDS011;39387;50.998;22.340;2022-10-16T03:24:23;14.48;;;9.18;;
53503;SDS011;39387;50.998;22.340;2022-10-16T03:26:50;17.65;;;9.90;;
53503;SDS011;39387;50.998;22.340;2022-10-16T03:29:18;17.92;;;9.82;;
53503;SDS011;39387;50.998;22.340;2022-10-16T03:31:45;18.75;;;10.45;;
53503;SDS011;39387;50.998;22.340;2022-10-16T03:34:14;18.27;;;10.02;;
53503;SDS011;39387;50.998;22.340;2022-10-16T03:36:41;17.00;;;9.90;;
53503;SDS011;39387;50.998;22.340;2022-10-16T03:39:10;16.05;;;8.75;;
53503;SDS011;39387;50.998;22.340;2022-10-16T03:41:37;19.13;;;9.77;;
53503;SDS011;39387;50.998;22.340;2022-10-16T03:44:04;15.23;;;9.43;;
53503;SDS011;39387;50.998;22.340;2022-10-16T03:46:32;16.50;;;9.57;;
53503;SDS011;39387;50.998;22.340;2022-10-16T03:48:59;16.70;;;8.70;;
53503;SDS011;39387;50.998;22.340;2022-10-16T03:51:26;18.77;;;9.85;;
53503;SDS011;39387;50.998;22.340;2022-10-16T03:53:53;16.45;;;8.90;;
53503;SDS011;39387;50.998;22.340;2022-10-16T03:56:22;16.55;;;9.32;;
53503;SDS011;39387;50.998;22.340;2022-10-16T03:58:49;17.67;;;10.05;;
53503;SDS011;39387;50.998;22.340;2022-10-16T04:01:17;20.80;;;10.20;;
53503;SDS011;39387;50.998;22.340;2022-10-16T04:03:44;21.13;;;11.68;;
53503;SDS011;39387;50.998;22.340;2022-10-16T04:06:11;20.73;;;11.50;;
53503;SDS011;39387;50.998;22.340;2022-10-16T04:08:38;20.73;;;10.70;;
53503;SDS011;39387;50.998;22.340;2022-10-16T04:11:06;20.90;;;10.98;;
53503;SDS011;39387;50.998;22.340;2022-10-16T04:13:34;20.65;;;11.57;;
53503;SDS011;39387;50.998;22.340;2022-10-16T04:16:02;22.50;;;12.40;;
53503;SDS011;39387;50.998;22.340;2022-10-16T04:18:29;24.00;;;12.50;;
53503;SDS011;39387;50.998;22.340;2022-10-16T04:20:56;30.25;;;13.60;;
53503;SDS011;39387;50.998;22.340;2022-10-16T04:23:23;30.05;;;14.50;;
53503;SDS011;39387;50.998;22.340;2022-10-16T04:25:51;29.08;;;13.70;;
53503;SDS011;39387;50.998;22.340;2022-10-16T04:28:18;26.77;;;13.27;;
53503;SDS011;39387;50.998;22.340;2022-10-16T04:30:47;26.52;;;12.75;;
53503;SDS011;39387;50.998;22.340;2022-10-16T04:33:14;23.58;;;12.88;;
53503;SDS011;39387;50.998;22.340;2022-10-16T04:35:42;22.42;;;11.13;;
53503;SDS011;39387;50.998;22.340;2022-10-16T04:38:09;21.13;;;11.38;;
53503;SDS011;39387;50.998;22.340;2022-10-16T04:40:36;22.38;;;12.40;;
53503;SDS011;39387;50.998;22.340;2022-10-16T04:43:04;26.38;;;12.75;;
53503;SDS011;39387;50.998;22.340;2022-10-16T04:45:32;26.38;;;12.63;;
53503;SDS011;39387;50.998;22.340;2022-10-16T04:48:01;25.67;;;13.25;;
53503;SDS011;39387;50.998;22.340;2022-10-16T04:50:28;22.25;;;11.80;;
53503;SDS011;39387;50.998;22.340;2022-10-16T04:52:56;22.27;;;12.23;;
53503;SDS011;39387;50.998;22.340;2022-10-16T04:55:23;20.58;;;12.07;;
53503;SDS011;39387;50.998;22.340;2022-10-16T04:57:50;19.65;;;11.30;;
53503;SDS011;39387;50.998;22.340;2022-10-16T05:00:18;20.48;;;10.90;;
53503;SDS011;39387;50.998;22.340;2022-10-16T05:02:45;18.27;;;10.07;;
53503;SDS011;39387;50.998;22.340;2022-10-16T05:05:14;17.15;;;9.45;;
53503;SDS011;39387;50.998;22.340;2022-10-16T05:07:41;17.85;;;10.85;;
53503;SDS011;39387;50.998;22.340;2022-10-16T05:10:08;17.10;;;10.07;;
53503;SDS011;39387;50.998;22.340;2022-10-16T05:12:36;18.75;;;10.15;;
53503;SDS011;39387;50.998;22.340;2022-10-16T05:15:03;17.08;;;9.73;;
53503;SDS011;39387;50.998;22.340;2022-10-16T05:17:31;16.45;;;9.02;;
53503;SDS011;39387;50.998;22.340;2022-10-16T05:19:59;17.65;;;10.38;;
53503;SDS011;39387;50.998;22.340;2022-10-16T05:22:27;16.77;;;9.95;;
53503;SDS011;39387;50.998;22.340;2022-10-16T05:24:54;16.70;;;9.98;;
53503;SDS011;39387;50.998;22.340;2022-10-16T05:27:22;16.52;;;9.90;;
53503;SDS011;39387;50.998;22.340;2022-10-16T05:29:49;19.15;;;11.25;;
53503;SDS011;39387;50.998;22.340;2022-10-16T05:32:17;18.00;;;10.10;;
53503;SDS011;39387;50.998;22.340;2022-10-16T05:34:45;16.20;;;10.38;;
53503;SDS011;39387;50.998;22.340;2022-10-16T05:37:12;16.40;;;9.50;;
53503;SDS011;39387;50.998;22.340;2022-10-16T05:39:41;15.23;;;10.23;;
53503;SDS011;39387;50.998;22.340;2022-10-16T05:42:08;16.05;;;10.15;;
53503;SDS011;39387;50.998;22.340;2022-10-16T05:44:36;16.50;;;9.52;;
53503;SDS011;39387;50.998;22.340;2022-10-16T05:47:03;16.02;;;9.68;;
53503;SDS011;39387;50.998;22.340;2022-10-16T05:49:30;14.85;;;8.35;;
53503;SDS011;39387;50.998;22.340;2022-10-16T05:51:58;14.48;;;8.98;;
53503;SDS011;39387;50.998;22.340;2022-10-16T05:54:25;13.98;;;8.90;;
53503;SDS011;39387;50.998;22.340;2022-10-16T05:56:54;14.73;;;9.20;;
53503;SDS011;39387;50.998;22.340;2022-10-16T05:59:21;14.50;;;8.95;;
53503;SDS011;39387;50.998;22.340;2022-10-16T06:01:48;14.00;;;8.57;;
53503;SDS011;39387;50.998;22.340;2022-10-16T06:04:15;12.10;;;7.70;;
53503;SDS011;39387;50.998;22.340;2022-10-16T06:06:43;12.68;;;7.80;;
53503;SDS011;39387;50.998;22.340;2022-10-16T06:09:10;17.77;;;10.23;;
53503;SDS011;39387;50.998;22.340;2022-10-16T06:11:37;13.77;;;9.48;;
53503;SDS011;39387;50.998;22.340;2022-10-16T06:14:07;16.90;;;10.10;;
53503;SDS011;39387;50.998;22.340;2022-10-16T06:16:35;15.82;;;10.27;;
53503;SDS011;39387;50.998;22.340;2022-10-16T06:19:03;15.93;;;9.38;;
53503;SDS011;39387;50.998;22.340;2022-10-16T06:21:31;16.15;;;9.32;;
53503;SDS011;39387;50.998;22.340;2022-10-16T06:23:59;13.73;;;8.88;;
53503;SDS011;39387;50.998;22.340;2022-10-16T06:26:27;14.23;;;9.38;;
53503;SDS011;39387;50.998;22.340;2022-10-16T06:28:56;14.52;;;8.98;;
53503;SDS011;39387;50.998;22.340;2022-10-16T06:31:27;14.05;;;8.95;;
53503;SDS011;39387;50.998;22.340;2022-10-16T06:33:57;13.57;;;8.73;;
53503;SDS011;39387;50.998;22.340;2022-10-16T06:36:25;13.00;;;8.77;;
53503;SDS011;39387;50.998;22.340;2022-10-16T06:38:52;15.75;;;9.10;;
53503;SDS011;39387;50.998;22.340;2022-10-16T06:41:21;14.35;;;9.38;;
53503;SDS011;39387;50.998;22.340;2022-10-16T06:43:48;13.90;;;8.95;;
53503;SDS011;39387;50.998;22.340;2022-10-16T06:46:17;14.65;;;9.00;;
53503;SDS011;39387;50.998;22.340;2022-10-16T06:48:46;13.68;;;8.05;;
53503;SDS011;39387;50.998;22.340;2022-10-16T06:51:14;14.30;;;8.98;;
53503;SDS011;39387;50.998;22.340;2022-10-16T06:53:43;11.43;;;7.55;;
53503;SDS011;39387;50.998;22.340;2022-10-16T06:56:13;16.50;;;7.93;;
53503;SDS011;39387;50.998;22.340;2022-10-16T06:58:42;12.30;;;7.80;;
53503;SDS011;39387;50.998;22.340;2022-10-16T07:01:10;13.75;;;8.95;;
53503;SDS011;39387;50.998;22.340;2022-10-16T07:03:37;12.32;;;7.80;;
53503;SDS011;39387;50.998;22.340;2022-10-16T07:06:07;11.95;;;8.27;;
53503;SDS011;39387;50.998;22.340;2022-10-16T07:08:36;12.47;;;7.90;;
53503;SDS011;39387;50.998;22.340;2022-10-16T07:11:05;11.18;;;7.38;;
53503;SDS011;39387;50.998;22.340;2022-10-16T07:13:33;12.55;;;8.23;;
53503;SDS011;39387;50.998;22.340;2022-10-16T07:16:04;15.85;;;8.57;;
53503;SDS011;39387;50.998;22.340;2022-10-16T07:18:32;13.63;;;8.48;;
53503;SDS011;39387;50.998;22.340;2022-10-16T07:21:03;11.43;;;7.75;;
53503;SDS011;39387;50.998;22.340;2022-10-16T07:23:32;12.23;;;7.55;;
53503;SDS011;39387;50.998;22.340;2022-10-16T07:26:00;11.30;;;8.02;;
53503;SDS011;39387;50.998;22.340;2022-10-16T07:28:27;10.85;;;7.55;;
53503;SDS011;39387;50.998;22.340;2022-10-16T07:30:55;12.00;;;7.47;;
53503;SDS011;39387;50.998;22.340;2022-10-16T07:33:22;11.68;;;7.68;;
53503;SDS011;39387;50.998;22.340;2022-10-16T07:35:50;10.30;;;7.07;;
53503;SDS011;39387;50.998;22.340;2022-10-16T07:38:18;11.82;;;7.45;;
53503;SDS011;39387;50.998;22.340;2022-10-16T07:40:47;9.13;;;6.93;;
53503;SDS011;39387;50.998;22.340;2022-10-16T07:43:14;10.90;;;6.97;;
53503;SDS011;39387;50.998;22.340;2022-10-16T07:45:46;10.40;;;6.97;;
53503;SDS011;39387;50.998;22.340;2022-10-16T07:48:14;8.70;;;6.85;;
53503;SDS011;39387;50.998;22.340;2022-10-16T07:50:42;9.27;;;7.13;;
53503;SDS011;39387;50.998;22.340;2022-10-16T07:53:09;10.63;;;7.22;;
53503;SDS011;39387;50.998;22.340;2022-10-16T07:55:37;9.60;;;6.88;;
53503;SDS011;39387;50.998;22.340;2022-10-16T07:58:06;12.77;;;6.80;;
53503;SDS011;39387;50.998;22.340;2022-10-16T08:00:35;10.88;;;7.53;;
53503;SDS011;39387;50.998;22.340;2022-10-16T08:03:03;9.60;;;6.82;;
53503;SDS011;39387;50.998;22.340;2022-10-16T08:05:31;10.80;;;7.50;;
53503;SDS011;39387;50.998;22.340;2022-10-16T08:07:59;9.80;;;7.10;;
53503;SDS011;39387;50.998;22.340;2022-10-16T08:10:28;9.93;;;7.00;;
53503;SDS011;39387;50.998;22.340;2022-10-16T08:12:55;9.65;;;6.47;;
53503;SDS011;39387;50.998;22.340;2022-10-16T08:15:24;9.52;;;7.28;;
53503;SDS011;39387;50.998;22.340;2022-10-16T08:17:55;11.05;;;6.85;;
53503;SDS011;39387;50.998;22.340;2022-10-16T08:20:24;9.43;;;6.68;;
53503;SDS011;39387;50.998;22.340;2022-10-16T08:22:52;9.82;;;6.88;;
53503;SDS011;39387;50.998;22.340;2022-10-16T08:25:21;10.63;;;7.97;;
53503;SDS011;39387;50.998;22.340;2022-10-16T08:27:48;8.63;;;6.15;;
53503;SDS011;39387;50.998;22.340;2022-10-16T08:30:16;8.10;;;6.18;;
53503;SDS011;39387;50.998;22.340;2022-10-16T08:32:47;8.23;;;6.33;;
53503;SDS011;39387;50.998;22.340;2022-10-16T08:35:15;9.18;;;6.75;;
53503;SDS011;39387;50.998;22.340;2022-10-16T08:37:42;9.73;;;6.85;;
53503;SDS011;39387;50.998;22.340;2022-10-16T08:40:13;9.40;;;6.63;;
53503;SDS011;39387;50.998;22.340;2022-10-16T08:42:51;10.85;;;6.85;;
53503;SDS011;39387;50.998;22.340;2022-10-16T08:45:26;8.25;;;6.68;;
53503;SDS011;39387;50.998;22.340;2022-10-16T08:48:03;8.35;;;6.53;;
53503;SDS011;39387;50.998;22.340;2022-10-16T08:50:37;6.63;;;5.80;;
53503;SDS011;39387;50.998;22.340;2022-10-16T08:53:05;10.15;;;6.38;;
53503;SDS011;39387;50.998;22.340;2022-10-16T08:55:33;8.35;;;6.53;;
53503;SDS011;39387;50.998;22.340;2022-10-16T08:58:09;9.73;;;6.88;;
53503;SDS011;39387;50.998;22.340;2022-10-16T09:00:39;8.40;;;6.13;;
53503;SDS011;39387;50.998;22.340;2022-10-16T09:03:11;7.50;;;5.90;;
53503;SDS011;39387;50.998;22.340;2022-10-16T09:05:48;9.20;;;6.13;;
53503;SDS011;39387;50.998;22.340;2022-10-16T09:08:20;6.95;;;5.80;;
53503;SDS011;39387;50.998;22.340;2022-10-16T09:10:57;7.85;;;6.32;;
53503;SDS011;39387;50.998;22.340;2022-10-16T09:13:29;6.38;;;5.70;;
53503;SDS011;39387;50.998;22.340;2022-10-16T09:16:01;8.00;;;5.55;;
53503;SDS011;39387;50.998;22.340;2022-10-16T09:18:40;8.57;;;5.80;;
53503;SDS011;39387;50.998;22.340;2022-10-16T09:21:14;8.82;;;6.25;;
53503;SDS011;39387;50.998;22.340;2022-10-16T09:23:43;7.05;;;5.82;;
53503;SDS011;39387;50.998;22.340;2022-10-16T09:26:11;7.45;;;6.00;;
53503;SDS011;39387;50.998;22.340;2022-10-16T09:28:40;8.93;;;6.45;;
53503;SDS011;39387;50.998;22.340;2022-10-16T09:31:10;7.07;;;5.82;;
53503;SDS011;39387;50.998;22.340;2022-10-16T09:33:45;9.55;;;7.35;;
53503;SDS011;39387;50.998;22.340;2022-10-16T09:36:15;7.93;;;6.03;;
53503;SDS011;39387;50.998;22.340;2022-10-16T09:38:42;7.13;;;6.30;;
53503;SDS011;39387;50.998;22.340;2022-10-16T09:41:14;7.63;;;6.00;;
53503;SDS011;39387;50.998;22.340;2022-10-16T09:43:46;9.27;;;6.40;;
53503;SDS011;39387;50.998;22.340;2022-10-16T09:46:21;9.10;;;6.40;;
53503;SDS011;39387;50.998;22.340;2022-10-16T09:48:53;8.07;;;6.13;;
53503;SDS011;39387;50.998;22.340;2022-10-16T09:51:22;7.15;;;6.07;;
53503;SDS011;39387;50.998;22.340;2022-10-16T09:53:54;8.02;;;6.50;;
53503;SDS011;39387;50.998;22.340;2022-10-16T09:56:23;8.52;;;6.53;;
53503;SDS011;39387;50.998;22.340;2022-10-16T09:58:52;9.73;;;6.78;;
53503;SDS011;39387;50.998;22.340;2022-10-16T10:01:20;10.00;;;6.68;;
53503;SDS011;39387;50.998;22.340;2022-10-16T10:03:50;7.38;;;6.05;;
53503;SDS011;39387;50.998;22.340;2022-10-16T10:06:23;8.20;;;6.28;;
53503;SDS011;39387;50.998;22.340;2022-10-16T10:08:59;7.57;;;6.32;;
53503;SDS011;39387;50.998;22.340;2022-10-16T10:11:40;10.90;;;6.57;;
53503;SDS011;39387;50.998;22.340;2022-10-16T10:14:13;9.35;;;6.07;;
53503;SDS011;39387;50.998;22.340;2022-10-16T10:16:48;9.35;;;7.13;;
53503;SDS011;39387;50.998;22.340;2022-10-16T10:19:16;10.85;;;6.57;;
53503;SDS011;39387;50.998;22.340;2022-10-16T10:21:47;9.40;;;6.63;;
53503;SDS011;39387;50.998;22.340;2022-10-16T10:24:15;7.97;;;6.72;;
53503;SDS011;39387;50.998;22.340;2022-10-16T10:26:46;8.63;;;6.22;;
53503;SDS011;39387;50.998;22.340;2022-10-16T10:29:21;8.30;;;6.38;;
53503;SDS011;39387;50.998;22.340;2022-10-16T10:32:01;7.72;;;6.43;;
53503;SDS011;39387;50.998;22.340;2022-10-16T10:34:41;8.40;;;6.30;;
53503;SDS011;39387;50.998;22.340;2022-10-16T10:37:24;8.15;;;6.10;;
53503;SDS011;39387;50.998;22.340;2022-10-16T10:40:04;7.20;;;6.28;;
53503;SDS011;39387;50.998;22.340;2022-10-16T10:42:35;8.57;;;6.25;;
53503;SDS011;39387;50.998;22.340;2022-10-16T10:45:18;11.13;;;6.40;;
53503;SDS011;39387;50.998;22.340;2022-10-16T10:48:06;11.15;;;7.20;;
53503;SDS011;39387;50.998;22.340;2022-10-16T10:50:45;7.80;;;6.00;;
53503;SDS011;39387;50.998;22.340;2022-10-16T10:53:21;8.65;;;6.88;;
53503;SDS011;39387;50.998;22.340;2022-10-16T10:55:54;7.93;;;6.45;;
53503;SDS011;39387;50.998;22.340;2022-10-16T10:58:37;8.77;;;6.32;;
53503;SDS011;39387;50.998;22.340;2022-10-16T11:01:16;8.75;;;6.72;;
53503;SDS011;39387;50.998;22.340;2022-10-16T11:03:54;10.60;;;6.93;;
53503;SDS011;39387;50.998;22.340;2022-10-16T11:06:31;8.60;;;6.78;;
53503;SDS011;39387;50.998;22.340;2022-10-16T11:09:02;8.02;;;6.05;;
53503;SDS011;39387;50.998;22.340;2022-10-16T11:11:37;8.23;;;6.00;;
53503;SDS011;39387;50.998;22.340;2022-10-16T11:14:10;8.02;;;6.00;;
53503;SDS011;39387;50.998;22.340;2022-10-16T11:16:43;8.73;;;6.50;;
53503;SDS011;39387;50.998;22.340;2022-10-16T11:19:14;7.28;;;6.18;;
53503;SDS011;39387;50.998;22.340;2022-10-16T11:21:49;9.77;;;6.32;;
53503;SDS011;39387;50.998;22.340;2022-10-16T11:24:23;8.98;;;6.63;;
53503;SDS011;39387;50.998;22.340;2022-10-16T11:26:57;8.55;;;6.20;;
53503;SDS011;39387;50.998;22.340;2022-10-16T11:29:28;7.38;;;5.72;;
53503;SDS011;39387;50.998;22.340;2022-10-16T11:31:57;9.38;;;6.47;;
53503;SDS011;39387;50.998;22.340;2022-10-16T11:34:28;7.22;;;6.47;;
53503;SDS011;39387;50.998;22.340;2022-10-16T11:37:00;7.57;;;6.47;;
53503;SDS011;39387;50.998;22.340;2022-10-16T11:39:32;9.80;;;6.47;;
53503;SDS011;39387;50.998;22.340;2022-10-16T11:42:01;6.88;;;5.75;;
53503;SDS011;39387;50.998;22.340;2022-10-16T11:44:38;9.13;;;7.03;;
53503;SDS011;39387;50.998;22.340;2022-10-16T11:47:19;7.45;;;6.38;;
53503;SDS011;39387;50.998;22.340;2022-10-16T11:49:53;8.18;;;6.75;;
53503;SDS011;39387;50.998;22.340;2022-10-16T11:52:25;9.70;;;7.03;;
53503;SDS011;39387;50.998;22.340;2022-10-16T11:54:59;9.27;;;6.43;;
53503;SDS011;39387;50.998;22.340;2022-10-16T11:57:31;7.70;;;6.18;;
53503;SDS011;39387;50.998;22.340;2022-10-16T12:00:00;7.40;;;6.13;;
53503;SDS011;39387;50.998;22.340;2022-10-16T12:02:32;7.97;;;6.00;;
53503;SDS011;39387;50.998;22.340;2022-10-16T12:05:09;8.25;;;6.28;;
53503;SDS011;39387;50.998;22.340;2022-10-16T12:07:43;8.93;;;6.90;;
53503;SDS011;39387;50.998;22.340;2022-10-16T12:10:21;7.15;;;5.95;;
53503;SDS011;39387;50.998;22.340;2022-10-16T12:12:49;7.40;;;6.30;;
53503;SDS011;39387;50.998;22.340;2022-10-16T12:15:19;8.20;;;6.00;;
53503;SDS011;39387;50.998;22.340;2022-10-16T12:17:48;11.82;;;6.30;;
53503;SDS011;39387;50.998;22.340;2022-10-16T12:20:25;8.90;;;6.35;;
53503;SDS011;39387;50.998;22.340;2022-10-16T12:22:56;9.88;;;6.30;;
53503;SDS011;39387;50.998;22.340;2022-10-16T12:25:27;7.28;;;6.10;;
53503;SDS011;39387;50.998;22.340;2022-10-16T12:27:57;7.03;;;5.55;;
53503;SDS011;39387;50.998;22.340;2022-10-16T12:30:26;8.40;;;5.65;;
53503;SDS011;39387;50.998;22.340;2022-10-16T12:32:56;8.70;;;6.30;;
53503;SDS011;39387;50.998;22.340;2022-10-16T12:35:25;7.82;;;6.07;;
53503;SDS011;39387;50.998;22.340;2022-10-16T12:37:53;7.40;;;6.22;;
53503;SDS011;39387;50.998;22.340;2022-10-16T12:40:28;6.93;;;5.95;;
53503;SDS011;39387;50.998;22.340;2022-10-16T12:42:57;8.18;;;5.85;;
53503;SDS011;39387;50.998;22.340;2022-10-16T12:45:26;6.63;;;5.85;;
53503;SDS011;39387;50.998;22.340;2022-10-16T12:47:57;6.50;;;5.70;;
53503;SDS011;39387;50.998;22.340;2022-10-16T12:50:28;5.82;;;4.95;;
53503;SDS011;39387;50.998;22.340;2022-10-16T12:52:57;7.57;;;5.53;;
53503;SDS011;39387;50.998;22.340;2022-10-16T12:55:27;7.00;;;5.43;;
53503;SDS011;39387;50.998;22.340;2022-10-16T12:58:07;7.45;;;5.68;;
53503;SDS011;39387;50.998;22.340;2022-10-16T13:00:41;7.88;;;5.70;;
53503;SDS011;39387;50.998;22.340;2022-10-16T13:09:21;7.80;;;5.20;;
53503;SDS011;39387;50.998;22.340;2022-10-16T13:29:12;7.88;;;5.50;;
53503;SDS011;39387;50.998;22.340;2022-10-16T13:34:26;6.55;;;5.32;;
53503;SDS011;39387;50.998;22.340;2022-10-16T13:37:15;7.25;;;5.07;;
53503;SDS011;39387;50.998;22.340;2022-10-16T13:46:04;5.50;;;4.88;;
53503;SDS011;39387;50.998;22.340;2022-10-16T13:49:01;7.03;;;5.60;;
53503;SDS011;39387;50.998;22.340;2022-10-16T13:51:32;8.02;;;5.72;;
53503;SDS011;39387;50.998;22.340;2022-10-16T13:54:07;7.68;;;5.72;;
53503;SDS011;39387;50.998;22.340;2022-10-16T13:56:49;6.75;;;5.68;;
53503;SDS011;39387;50.998;22.340;2022-10-16T13:59:24;6.03;;;5.03;;
53503;SDS011;39387;50.998;22.340;2022-10-16T14:02:08;7.57;;;5.20;;
53503;SDS011;39387;50.998;22.340;2022-10-16T14:04:41;7.40;;;5.22;;
53503;SDS011;39387;50.998;22.340;2022-10-16T14:07:13;8.00;;;5.50;;
53503;SDS011;39387;50.998;22.340;2022-10-16T14:09:48;6.72;;;5.00;;
53503;SDS011;39387;50.998;22.340;2022-10-16T14:12:35;5.80;;;5.00;;
53503;SDS011;39387;50.998;22.340;2022-10-16T14:15:28;5.85;;;5.25;;
53503;SDS011;39387;50.998;22.340;2022-10-16T14:18:03;7.05;;;5.28;;
53503;SDS011;39387;50.998;22.340;2022-10-16T14:20:40;7.07;;;4.88;;
53503;SDS011;39387;50.998;22.340;2022-10-16T14:23:29;7.32;;;5.25;;
53503;SDS011;39387;50.998;22.340;2022-10-16T14:26:12;8.00;;;5.18;;
53503;SDS011;39387;50.998;22.340;2022-10-16T14:29:03;5.70;;;4.82;;
53503;SDS011;39387;50.998;22.340;2022-10-16T14:32:20;8.45;;;4.80;;
53503;SDS011;39387;50.998;22.340;2022-10-16T14:35:24;6.45;;;4.88;;
53503;SDS011;39387;50.998;22.340;2022-10-16T14:38:26;5.82;;;4.68;;
53503;SDS011;39387;50.998;22.340;2022-10-16T14:41:05;6.95;;;5.28;;
53503;SDS011;39387;50.998;22.340;2022-10-16T14:43:44;6.47;;;5.10;;
53503;SDS011;39387;50.998;22.340;2022-10-16T14:46:42;5.47;;;4.90;;
53503;SDS011;39387;50.998;22.340;2022-10-16T14:52:38;6.85;;;5.15;;
53503;SDS011;39387;50.998;22.340;2022-10-16T14:55:31;5.72;;;4.93;;
53503;SDS011;39387;50.998;22.340;2022-10-16T14:58:10;5.45;;;4.50;;
53503;SDS011;39387;50.998;22.340;2022-10-16T15:00:45;6.95;;;4.97;;
53503;SDS011;39387;50.998;22.340;2022-10-16T15:03:20;6.72;;;4.85;;
53503;SDS011;39387;50.998;22.340;2022-10-16T15:05:50;6.45;;;5.35;;
53503;SDS011;39387;50.998;22.340;2022-10-16T15:08:19;6.05;;;4.93;;
53503;SDS011;39387;50.998;22.340;2022-10-16T15:10:47;6.15;;;4.78;;
53503;SDS011;39387;50.998;22.340;2022-10-16T15:13:18;6.10;;;4.75;;
53503;SDS011;39387;50.998;22.340;2022-10-16T15:15:47;6.22;;;5.13;;
53503;SDS011;39387;50.998;22.340;2022-10-16T15:18:18;8.00;;;4.93;;
53503;SDS011;39387;50.998;22.340;2022-10-16T15:21:10;6.23;;;5.00;;
53503;SDS011;39387;50.998;22.340;2022-10-16T15:23:51;7.32;;;5.10;;